sensor_id;sensor_type;location;lat;lon;timestamp;P1;durP1;ratioP1;P2;durP2;ratioP2
74227;SDS011;62587;52.352;5.006;2022-12-18T00:02:01;18.00;;;11.50;;
74227;SDS011;62587;52.352;5.006;2022-12-18T00:04:27;17.98;;;11.68;;
74227;SDS011;62587;52.352;5.006;2022-12-18T00:06:53;17.08;;;11.70;;
74227;SDS011;62587;52.352;5.006;2022-12-18T00:09:19;16.77;;;11.30;;
74227;SDS011;62587;52.352;5.006;2022-12-18T00:11:45;16.40;;;11.32;;
74227;SDS011;62587;52.352;5.006;2022-12-18T00:14:11;17.63;;;11.68;;
74227;SDS011;62587;52.352;5.006;2022-12-18T00:16:37;17.02;;;11.40;;
74227;SDS011;62587;52.352;5.006;2022-12-18T00:19:03;17.95;;;10.93;;
74227;SDS011;62587;52.352;5.006;2022-12-18T00:21:30;14.98;;;10.57;;
74227;SDS011;62587;52.352;5.006;2022-12-18T00:23:57;16.92;;;11.65;;
74227;SDS011;62587;52.352;5.006;2022-12-18T00:26:24;17.38;;;11.90;;
74227;SDS011;62587;52.352;5.006;2022-12-18T00:28:53;18.10;;;11.82;;
74227;SDS011;62587;52.352;5.006;2022-12-18T00:31:22;17.63;;;11.90;;
74227;SDS011;62587;52.352;5.006;2022-12-18T00:33:48;16.90;;;11.43;;
74227;SDS011;62587;52.352;5.006;2022-12-18T00:36:15;17.27;;;12.00;;
74227;SDS011;62587;52.352;5.006;2022-12-18T00:38:43;18.10;;;11.65;;
74227;SDS011;62587;52.352;5.006;2022-12-18T00:41:10;18.75;;;12.25;;
74227;SDS011;62587;52.352;5.006;2022-12-18T00:43:37;16.90;;;11.57;;
74227;SDS011;62587;52.352;5.006;2022-12-18T00:46:03;16.38;;;11.27;;
74227;SDS011;62587;52.352;5.006;2022-12-18T00:48:29;17.63;;;11.18;;
74227;SDS011;62587;52.352;5.006;2022-12-18T00:50:54;16.17;;;11.13;;
74227;SDS011;62587;52.352;5.006;2022-12-18T00:53:20;18.42;;;11.70;;
74227;SDS011;62587;52.352;5.006;2022-12-18T00:55:45;16.15;;;11.13;;
74227;SDS011;62587;52.352;5.006;2022-12-18T00:58:11;17.55;;;11.68;;
74227;SDS011;62587;52.352;5.006;2022-12-18T01:00:38;16.77;;;10.88;;
74227;SDS011;62587;52.352;5.006;2022-12-18T01:03:03;16.60;;;10.95;;
74227;SDS011;62587;52.352;5.006;2022-12-18T01:05:29;15.80;;;11.38;;
74227;SDS011;62587;52.352;5.006;2022-12-18T01:07:55;15.80;;;11.50;;
74227;SDS011;62587;52.352;5.006;2022-12-18T01:10:21;16.80;;;11.23;;
74227;SDS011;62587;52.352;5.006;2022-12-18T01:12:47;15.43;;;10.73;;
74227;SDS011;62587;52.352;5.006;2022-12-18T01:15:13;17.63;;;11.55;;
74227;SDS011;62587;52.352;5.006;2022-12-18T01:17:39;15.90;;;11.13;;
74227;SDS011;62587;52.352;5.006;2022-12-18T01:20:05;17.20;;;11.27;;
74227;SDS011;62587;52.352;5.006;2022-12-18T01:22:31;16.67;;;10.70;;
74227;SDS011;62587;52.352;5.006;2022-12-18T01:27:24;17.67;;;11.63;;
74227;SDS011;62587;52.352;5.006;2022-12-18T01:29:50;16.27;;;11.05;;
74227;SDS011;62587;52.352;5.006;2022-12-18T01:32:15;15.77;;;11.13;;
74227;SDS011;62587;52.352;5.006;2022-12-18T01:34:40;15.57;;;10.80;;
74227;SDS011;62587;52.352;5.006;2022-12-18T01:37:05;16.42;;;10.88;;
74227;SDS011;62587;52.352;5.006;2022-12-18T01:39:31;16.40;;;10.83;;
74227;SDS011;62587;52.352;5.006;2022-12-18T01:41:58;18.02;;;11.20;;
74227;SDS011;62587;52.352;5.006;2022-12-18T01:47:27;17.17;;;11.27;;
74227;SDS011;62587;52.352;5.006;2022-12-18T01:49:57;16.23;;;11.00;;
74227;SDS011;62587;52.352;5.006;2022-12-18T01:52:26;19.02;;;12.48;;
74227;SDS011;62587;52.352;5.006;2022-12-18T01:54:54;16.17;;;11.32;;
74227;SDS011;62587;52.352;5.006;2022-12-18T01:57:20;16.58;;;11.02;;
74227;SDS011;62587;52.352;5.006;2022-12-18T01:59:47;17.00;;;11.60;;
74227;SDS011;62587;52.352;5.006;2022-12-18T02:02:18;15.32;;;11.00;;
74227;SDS011;62587;52.352;5.006;2022-12-18T02:04:45;16.42;;;11.55;;
74227;SDS011;62587;52.352;5.006;2022-12-18T02:07:20;16.33;;;11.88;;
74227;SDS011;62587;52.352;5.006;2022-12-18T02:09:59;17.08;;;11.27;;
74227;SDS011;62587;52.352;5.006;2022-12-18T02:15:38;15.77;;;11.13;;
74227;SDS011;62587;52.352;5.006;2022-12-18T02:18:11;16.13;;;11.25;;
74227;SDS011;62587;52.352;5.006;2022-12-18T02:20:53;15.77;;;10.48;;
74227;SDS011;62587;52.352;5.006;2022-12-18T02:28:34;16.48;;;11.35;;
74227;SDS011;62587;52.352;5.006;2022-12-18T02:31:09;16.45;;;11.23;;
74227;SDS011;62587;52.352;5.006;2022-12-18T02:33:38;16.25;;;11.27;;
74227;SDS011;62587;52.352;5.006;2022-12-18T02:36:07;13.70;;;10.20;;
74227;SDS011;62587;52.352;5.006;2022-12-18T02:38:34;15.85;;;10.65;;
74227;SDS011;62587;52.352;5.006;2022-12-18T02:41:00;14.68;;;10.18;;
74227;SDS011;62587;52.352;5.006;2022-12-18T02:43:25;14.90;;;10.63;;
74227;SDS011;62587;52.352;5.006;2022-12-18T02:45:55;16.77;;;10.52;;
74227;SDS011;62587;52.352;5.006;2022-12-18T02:48:24;15.88;;;10.75;;
74227;SDS011;62587;52.352;5.006;2022-12-18T02:50:59;16.02;;;10.90;;
74227;SDS011;62587;52.352;5.006;2022-12-18T02:53:29;14.55;;;11.50;;
74227;SDS011;62587;52.352;5.006;2022-12-18T02:56:28;16.65;;;11.07;;
74227;SDS011;62587;52.352;5.006;2022-12-18T02:59:02;17.67;;;10.13;;
74227;SDS011;62587;52.352;5.006;2022-12-18T03:01:34;15.25;;;9.88;;
74227;SDS011;62587;52.352;5.006;2022-12-18T03:04:38;19.27;;;11.00;;
74227;SDS011;62587;52.352;5.006;2022-12-18T03:07:14;18.30;;;10.63;;
74227;SDS011;62587;52.352;5.006;2022-12-18T03:09:42;17.30;;;11.15;;
74227;SDS011;62587;52.352;5.006;2022-12-18T03:12:14;15.77;;;11.20;;
74227;SDS011;62587;52.352;5.006;2022-12-18T03:14:48;16.15;;;11.10;;
74227;SDS011;62587;52.352;5.006;2022-12-18T03:17:20;15.82;;;11.00;;
74227;SDS011;62587;52.352;5.006;2022-12-18T03:19:50;14.18;;;10.48;;
74227;SDS011;62587;52.352;5.006;2022-12-18T03:22:17;14.50;;;10.15;;
74227;SDS011;62587;52.352;5.006;2022-12-18T03:24:45;14.75;;;10.23;;
74227;SDS011;62587;52.352;5.006;2022-12-18T03:27:13;15.98;;;10.65;;
74227;SDS011;62587;52.352;5.006;2022-12-18T03:29:50;19.70;;;11.48;;
74227;SDS011;62587;52.352;5.006;2022-12-18T03:32:23;16.40;;;10.10;;
74227;SDS011;62587;52.352;5.006;2022-12-18T03:34:53;15.88;;;10.52;;
74227;SDS011;62587;52.352;5.006;2022-12-18T03:37:23;16.48;;;11.02;;
74227;SDS011;62587;52.352;5.006;2022-12-18T03:39:49;17.33;;;11.63;;
74227;SDS011;62587;52.352;5.006;2022-12-18T03:47:33;13.52;;;9.75;;
74227;SDS011;62587;52.352;5.006;2022-12-18T03:50:20;14.43;;;9.80;;
74227;SDS011;62587;52.352;5.006;2022-12-18T03:52:50;16.33;;;10.82;;
74227;SDS011;62587;52.352;5.006;2022-12-18T03:55:22;16.35;;;10.98;;
74227;SDS011;62587;52.352;5.006;2022-12-18T03:57:49;15.82;;;11.05;;
74227;SDS011;62587;52.352;5.006;2022-12-18T04:00:17;14.50;;;10.55;;
74227;SDS011;62587;52.352;5.006;2022-12-18T04:02:53;15.70;;;10.45;;
74227;SDS011;62587;52.352;5.006;2022-12-18T04:05:21;15.25;;;10.90;;
74227;SDS011;62587;52.352;5.006;2022-12-18T04:07:49;17.73;;;10.90;;
74227;SDS011;62587;52.352;5.006;2022-12-18T04:10:16;15.27;;;11.15;;
74227;SDS011;62587;52.352;5.006;2022-12-18T04:12:42;14.32;;;10.35;;
74227;SDS011;62587;52.352;5.006;2022-12-18T04:15:08;16.23;;;10.65;;
74227;SDS011;62587;52.352;5.006;2022-12-18T04:17:35;15.18;;;10.93;;
74227;SDS011;62587;52.352;5.006;2022-12-18T04:20:00;15.15;;;10.32;;
74227;SDS011;62587;52.352;5.006;2022-12-18T04:22:26;14.87;;;10.37;;
74227;SDS011;62587;52.352;5.006;2022-12-18T04:24:51;16.20;;;10.73;;
74227;SDS011;62587;52.352;5.006;2022-12-18T04:27:16;16.60;;;12.13;;
74227;SDS011;62587;52.352;5.006;2022-12-18T04:29:41;16.50;;;10.80;;
74227;SDS011;62587;52.352;5.006;2022-12-18T04:32:07;16.83;;;10.83;;
74227;SDS011;62587;52.352;5.006;2022-12-18T04:34:32;14.13;;;10.57;;
74227;SDS011;62587;52.352;5.006;2022-12-18T04:36:58;15.50;;;10.33;;
74227;SDS011;62587;52.352;5.006;2022-12-18T04:39:23;14.10;;;10.30;;
74227;SDS011;62587;52.352;5.006;2022-12-18T04:41:49;13.07;;;10.02;;
74227;SDS011;62587;52.352;5.006;2022-12-18T04:44:14;14.25;;;10.65;;
74227;SDS011;62587;52.352;5.006;2022-12-18T04:46:39;14.25;;;10.60;;
74227;SDS011;62587;52.352;5.006;2022-12-18T04:49:05;13.57;;;9.90;;
74227;SDS011;62587;52.352;5.006;2022-12-18T04:51:30;16.08;;;11.10;;
74227;SDS011;62587;52.352;5.006;2022-12-18T04:53:55;14.60;;;10.75;;
74227;SDS011;62587;52.352;5.006;2022-12-18T04:56:21;15.77;;;10.75;;
74227;SDS011;62587;52.352;5.006;2022-12-18T04:58:46;15.68;;;10.25;;
74227;SDS011;62587;52.352;5.006;2022-12-18T05:01:12;15.10;;;10.32;;
74227;SDS011;62587;52.352;5.006;2022-12-18T05:03:39;14.60;;;10.48;;
74227;SDS011;62587;52.352;5.006;2022-12-18T05:06:05;13.35;;;10.32;;
74227;SDS011;62587;52.352;5.006;2022-12-18T05:08:31;14.70;;;12.20;;
74227;SDS011;62587;52.352;5.006;2022-12-18T05:11:07;14.45;;;10.85;;
74227;SDS011;62587;52.352;5.006;2022-12-18T05:13:34;14.02;;;9.93;;
74227;SDS011;62587;52.352;5.006;2022-12-18T05:16:00;18.50;;;10.90;;
74227;SDS011;62587;52.352;5.006;2022-12-18T05:18:25;14.93;;;10.93;;
74227;SDS011;62587;52.352;5.006;2022-12-18T05:20:51;15.27;;;10.95;;
74227;SDS011;62587;52.352;5.006;2022-12-18T05:23:18;13.93;;;10.13;;
74227;SDS011;62587;52.352;5.006;2022-12-18T05:26:03;15.32;;;10.52;;
74227;SDS011;62587;52.352;5.006;2022-12-18T05:28:31;13.95;;;10.45;;
74227;SDS011;62587;52.352;5.006;2022-12-18T05:30:59;12.93;;;10.25;;
74227;SDS011;62587;52.352;5.006;2022-12-18T05:33:26;15.23;;;10.95;;
74227;SDS011;62587;52.352;5.006;2022-12-18T05:35:54;15.55;;;11.10;;
74227;SDS011;62587;52.352;5.006;2022-12-18T05:38:22;14.52;;;10.63;;
74227;SDS011;62587;52.352;5.006;2022-12-18T05:40:49;15.60;;;10.85;;
74227;SDS011;62587;52.352;5.006;2022-12-18T05:43:16;15.93;;;10.90;;
74227;SDS011;62587;52.352;5.006;2022-12-18T05:45:42;13.23;;;10.65;;
74227;SDS011;62587;52.352;5.006;2022-12-18T05:48:08;13.57;;;10.38;;
74227;SDS011;62587;52.352;5.006;2022-12-18T05:50:34;14.93;;;10.88;;
74227;SDS011;62587;52.352;5.006;2022-12-18T05:53:01;14.20;;;10.63;;
74227;SDS011;62587;52.352;5.006;2022-12-18T05:55:27;14.15;;;10.02;;
74227;SDS011;62587;52.352;5.006;2022-12-18T05:57:52;14.18;;;10.43;;
74227;SDS011;62587;52.352;5.006;2022-12-18T06:00:18;12.48;;;10.10;;
74227;SDS011;62587;52.352;5.006;2022-12-18T06:02:46;13.80;;;10.30;;
74227;SDS011;62587;52.352;5.006;2022-12-18T06:05:12;14.23;;;10.38;;
74227;SDS011;62587;52.352;5.006;2022-12-18T06:07:37;14.43;;;10.35;;
74227;SDS011;62587;52.352;5.006;2022-12-18T06:10:03;13.60;;;10.07;;
74227;SDS011;62587;52.352;5.006;2022-12-18T06:12:28;13.93;;;10.07;;
74227;SDS011;62587;52.352;5.006;2022-12-18T06:14:54;13.98;;;10.27;;
74227;SDS011;62587;52.352;5.006;2022-12-18T06:17:19;14.48;;;10.68;;
74227;SDS011;62587;52.352;5.006;2022-12-18T06:19:44;12.83;;;9.70;;
74227;SDS011;62587;52.352;5.006;2022-12-18T06:22:10;13.27;;;11.10;;
74227;SDS011;62587;52.352;5.006;2022-12-18T06:24:35;13.25;;;10.00;;
74227;SDS011;62587;52.352;5.006;2022-12-18T06:27:00;12.82;;;9.73;;
74227;SDS011;62587;52.352;5.006;2022-12-18T06:29:26;12.73;;;10.55;;
74227;SDS011;62587;52.352;5.006;2022-12-18T06:31:51;13.73;;;10.50;;
74227;SDS011;62587;52.352;5.006;2022-12-18T06:34:16;12.95;;;10.23;;
74227;SDS011;62587;52.352;5.006;2022-12-18T06:36:42;13.77;;;10.10;;
74227;SDS011;62587;52.352;5.006;2022-12-18T06:39:07;13.45;;;11.10;;
74227;SDS011;62587;52.352;5.006;2022-12-18T06:41:32;11.75;;;9.35;;
74227;SDS011;62587;52.352;5.006;2022-12-18T06:43:58;14.52;;;10.13;;
74227;SDS011;62587;52.352;5.006;2022-12-18T06:46:23;12.07;;;9.20;;
74227;SDS011;62587;52.352;5.006;2022-12-18T06:48:49;12.88;;;9.65;;
74227;SDS011;62587;52.352;5.006;2022-12-18T06:51:19;13.52;;;9.88;;
74227;SDS011;62587;52.352;5.006;2022-12-18T06:53:46;12.13;;;9.40;;
74227;SDS011;62587;52.352;5.006;2022-12-18T06:56:11;12.57;;;9.05;;
74227;SDS011;62587;52.352;5.006;2022-12-18T06:58:38;13.18;;;9.70;;
74227;SDS011;62587;52.352;5.006;2022-12-18T07:01:04;12.40;;;9.50;;
74227;SDS011;62587;52.352;5.006;2022-12-18T07:03:31;12.70;;;9.40;;
74227;SDS011;62587;52.352;5.006;2022-12-18T07:05:57;12.15;;;9.65;;
74227;SDS011;62587;52.352;5.006;2022-12-18T07:08:22;12.73;;;8.98;;
74227;SDS011;62587;52.352;5.006;2022-12-18T07:10:48;11.88;;;8.65;;
74227;SDS011;62587;52.352;5.006;2022-12-18T07:13:16;12.25;;;9.68;;
74227;SDS011;62587;52.352;5.006;2022-12-18T07:15:42;11.38;;;8.93;;
74227;SDS011;62587;52.352;5.006;2022-12-18T07:18:08;12.85;;;9.27;;
74227;SDS011;62587;52.352;5.006;2022-12-18T07:20:34;11.13;;;9.00;;
74227;SDS011;62587;52.352;5.006;2022-12-18T07:23:01;11.13;;;9.00;;
74227;SDS011;62587;52.352;5.006;2022-12-18T07:25:27;10.55;;;8.48;;
74227;SDS011;62587;52.352;5.006;2022-12-18T07:27:53;10.80;;;9.10;;
74227;SDS011;62587;52.352;5.006;2022-12-18T07:30:19;10.95;;;8.82;;
74227;SDS011;62587;52.352;5.006;2022-12-18T07:32:50;10.27;;;8.27;;
74227;SDS011;62587;52.352;5.006;2022-12-18T07:35:16;10.13;;;8.75;;
74227;SDS011;62587;52.352;5.006;2022-12-18T07:37:41;10.77;;;8.20;;
74227;SDS011;62587;52.352;5.006;2022-12-18T07:40:07;10.00;;;8.23;;
74227;SDS011;62587;52.352;5.006;2022-12-18T07:42:33;12.15;;;8.60;;
74227;SDS011;62587;52.352;5.006;2022-12-18T07:44:59;11.48;;;10.07;;
74227;SDS011;62587;52.352;5.006;2022-12-18T07:47:26;12.13;;;8.80;;
74227;SDS011;62587;52.352;5.006;2022-12-18T07:49:52;11.85;;;8.43;;
74227;SDS011;62587;52.352;5.006;2022-12-18T07:52:17;10.13;;;8.20;;
74227;SDS011;62587;52.352;5.006;2022-12-18T07:54:43;10.85;;;8.25;;
74227;SDS011;62587;52.352;5.006;2022-12-18T07:57:08;11.15;;;8.25;;
74227;SDS011;62587;52.352;5.006;2022-12-18T07:59:34;10.75;;;7.80;;
74227;SDS011;62587;52.352;5.006;2022-12-18T08:01:59;9.73;;;8.18;;
74227;SDS011;62587;52.352;5.006;2022-12-18T08:04:25;10.18;;;7.80;;
74227;SDS011;62587;52.352;5.006;2022-12-18T08:06:51;9.57;;;7.53;;
74227;SDS011;62587;52.352;5.006;2022-12-18T08:09:16;8.45;;;7.15;;
74227;SDS011;62587;52.352;5.006;2022-12-18T08:11:42;9.30;;;7.28;;
74227;SDS011;62587;52.352;5.006;2022-12-18T08:14:07;8.35;;;6.72;;
74227;SDS011;62587;52.352;5.006;2022-12-18T08:16:33;10.15;;;7.57;;
74227;SDS011;62587;52.352;5.006;2022-12-18T08:18:58;8.57;;;6.90;;
74227;SDS011;62587;52.352;5.006;2022-12-18T08:21:25;9.93;;;7.10;;
74227;SDS011;62587;52.352;5.006;2022-12-18T08:23:53;9.05;;;6.53;;
74227;SDS011;62587;52.352;5.006;2022-12-18T08:26:20;7.90;;;6.57;;
74227;SDS011;62587;52.352;5.006;2022-12-18T08:28:47;7.95;;;6.80;;
74227;SDS011;62587;52.352;5.006;2022-12-18T08:31:12;8.70;;;6.80;;
74227;SDS011;62587;52.352;5.006;2022-12-18T08:33:38;7.88;;;6.43;;
74227;SDS011;62587;52.352;5.006;2022-12-18T08:36:04;8.27;;;6.25;;
74227;SDS011;62587;52.352;5.006;2022-12-18T08:38:31;7.55;;;6.35;;
74227;SDS011;62587;52.352;5.006;2022-12-18T08:41:04;8.27;;;6.88;;
74227;SDS011;62587;52.352;5.006;2022-12-18T08:46:15;8.00;;;6.35;;
74227;SDS011;62587;52.352;5.006;2022-12-18T08:48:42;8.75;;;6.45;;
74227;SDS011;62587;52.352;5.006;2022-12-18T08:51:07;7.63;;;5.90;;
74227;SDS011;62587;52.352;5.006;2022-12-18T08:53:34;7.10;;;5.70;;
74227;SDS011;62587;52.352;5.006;2022-12-18T08:56:00;7.97;;;6.10;;
74227;SDS011;62587;52.352;5.006;2022-12-18T08:58:26;8.48;;;6.53;;
74227;SDS011;62587;52.352;5.006;2022-12-18T09:00:51;9.15;;;6.60;;
74227;SDS011;62587;52.352;5.006;2022-12-18T09:03:17;9.97;;;7.03;;
74227;SDS011;62587;52.352;5.006;2022-12-18T09:05:45;8.95;;;6.22;;
74227;SDS011;62587;52.352;5.006;2022-12-18T09:08:11;8.23;;;6.05;;
74227;SDS011;62587;52.352;5.006;2022-12-18T09:10:43;7.68;;;6.50;;
74227;SDS011;62587;52.352;5.006;2022-12-18T09:13:10;7.57;;;6.78;;
74227;SDS011;62587;52.352;5.006;2022-12-18T09:15:43;7.63;;;6.18;;
74227;SDS011;62587;52.352;5.006;2022-12-18T09:18:10;8.35;;;6.07;;
74227;SDS011;62587;52.352;5.006;2022-12-18T09:20:36;7.97;;;5.70;;
74227;SDS011;62587;52.352;5.006;2022-12-18T09:23:02;6.65;;;5.57;;
74227;SDS011;62587;52.352;5.006;2022-12-18T09:25:29;9.45;;;6.00;;
74227;SDS011;62587;52.352;5.006;2022-12-18T09:27:58;8.38;;;5.80;;
74227;SDS011;62587;52.352;5.006;2022-12-18T09:30:25;8.60;;;6.03;;
74227;SDS011;62587;52.352;5.006;2022-12-18T09:32:51;6.88;;;5.95;;
74227;SDS011;62587;52.352;5.006;2022-12-18T09:35:18;7.63;;;5.40;;
74227;SDS011;62587;52.352;5.006;2022-12-18T09:37:44;9.50;;;6.33;;
74227;SDS011;62587;52.352;5.006;2022-12-18T09:40:14;7.13;;;6.10;;
74227;SDS011;62587;52.352;5.006;2022-12-18T09:42:41;7.03;;;5.75;;
74227;SDS011;62587;52.352;5.006;2022-12-18T09:45:13;7.85;;;5.47;;
74227;SDS011;62587;52.352;5.006;2022-12-18T09:47:40;6.78;;;5.90;;
74227;SDS011;62587;52.352;5.006;2022-12-18T09:50:41;7.32;;;5.47;;
74227;SDS011;62587;52.352;5.006;2022-12-18T09:53:04;7.45;;;6.72;;
74227;SDS011;62587;52.352;5.006;2022-12-18T09:55:36;7.03;;;5.32;;
74227;SDS011;62587;52.352;5.006;2022-12-18T09:58:24;6.95;;;5.20;;
74227;SDS011;62587;52.352;5.006;2022-12-18T10:00:53;6.80;;;6.07;;
74227;SDS011;62587;52.352;5.006;2022-12-18T10:03:19;7.28;;;5.38;;
74227;SDS011;62587;52.352;5.006;2022-12-18T10:08:24;8.93;;;5.70;;
74227;SDS011;62587;52.352;5.006;2022-12-18T10:19:18;8.45;;;5.38;;
74227;SDS011;62587;52.352;5.006;2022-12-18T10:24:48;10.25;;;5.82;;
74227;SDS011;62587;52.352;5.006;2022-12-18T10:27:17;7.68;;;5.00;;
74227;SDS011;62587;52.352;5.006;2022-12-18T10:29:46;8.00;;;5.28;;
74227;SDS011;62587;52.352;5.006;2022-12-18T10:32:19;9.30;;;6.30;;
74227;SDS011;62587;52.352;5.006;2022-12-18T10:34:47;12.65;;;5.97;;
74227;SDS011;62587;52.352;5.006;2022-12-18T10:37:19;9.90;;;4.97;;
74227;SDS011;62587;52.352;5.006;2022-12-18T10:42:34;7.80;;;5.13;;
74227;SDS011;62587;52.352;5.006;2022-12-18T10:45:05;8.88;;;5.07;;
74227;SDS011;62587;52.352;5.006;2022-12-18T10:47:43;8.32;;;4.70;;
74227;SDS011;62587;52.352;5.006;2022-12-18T10:50:47;7.00;;;5.03;;
74227;SDS011;62587;52.352;5.006;2022-12-18T10:53:05;7.70;;;5.10;;
74227;SDS011;62587;52.352;5.006;2022-12-18T10:55:34;9.03;;;4.63;;
74227;SDS011;62587;52.352;5.006;2022-12-18T11:03:34;6.75;;;4.68;;
74227;SDS011;62587;52.352;5.006;2022-12-18T11:06:03;8.05;;;5.65;;
74227;SDS011;62587;52.352;5.006;2022-12-18T11:08:39;8.30;;;5.05;;
74227;SDS011;62587;52.352;5.006;2022-12-18T11:11:07;6.30;;;4.90;;
74227;SDS011;62587;52.352;5.006;2022-12-18T11:13:48;5.82;;;4.60;;
74227;SDS011;62587;52.352;5.006;2022-12-18T11:16:22;6.28;;;4.60;;
74227;SDS011;62587;52.352;5.006;2022-12-18T11:18:48;7.30;;;4.63;;
74227;SDS011;62587;52.352;5.006;2022-12-18T11:21:14;6.25;;;4.78;;
74227;SDS011;62587;52.352;5.006;2022-12-18T11:23:52;6.72;;;4.22;;
74227;SDS011;62587;52.352;5.006;2022-12-18T11:26:18;7.13;;;5.05;;
74227;SDS011;62587;52.352;5.006;2022-12-18T11:29:07;6.28;;;4.28;;
74227;SDS011;62587;52.352;5.006;2022-12-18T11:31:34;6.93;;;4.63;;
74227;SDS011;62587;52.352;5.006;2022-12-18T11:39:30;10.07;;;5.00;;
74227;SDS011;62587;52.352;5.006;2022-12-18T11:42:14;9.05;;;4.88;;
74227;SDS011;62587;52.352;5.006;2022-12-18T11:47:39;9.85;;;5.50;;
74227;SDS011;62587;52.352;5.006;2022-12-18T11:50:20;10.45;;;5.18;;
74227;SDS011;62587;52.352;5.006;2022-12-18T11:52:49;10.55;;;5.20;;
74227;SDS011;62587;52.352;5.006;2022-12-18T11:55:15;7.85;;;4.90;;
74227;SDS011;62587;52.352;5.006;2022-12-18T12:00:30;10.48;;;5.60;;
74227;SDS011;62587;52.352;5.006;2022-12-18T12:03:18;9.52;;;5.20;;
74227;SDS011;62587;52.352;5.006;2022-12-18T12:06:03;8.55;;;4.72;;
74227;SDS011;62587;52.352;5.006;2022-12-18T12:19:36;9.13;;;5.13;;
74227;SDS011;62587;52.352;5.006;2022-12-18T12:22:24;5.93;;;4.50;;
74227;SDS011;62587;52.352;5.006;2022-12-18T12:31:29;7.35;;;5.00;;
74227;SDS011;62587;52.352;5.006;2022-12-18T12:39:23;6.75;;;5.18;;
74227;SDS011;62587;52.352;5.006;2022-12-18T12:41:57;8.57;;;5.28;;
74227;SDS011;62587;52.352;5.006;2022-12-18T12:47:20;5.40;;;4.45;;
74227;SDS011;62587;52.352;5.006;2022-12-18T12:49:51;8.88;;;4.55;;
74227;SDS011;62587;52.352;5.006;2022-12-18T12:54:59;6.70;;;4.80;;
74227;SDS011;62587;52.352;5.006;2022-12-18T12:57:35;8.38;;;5.32;;
74227;SDS011;62587;52.352;5.006;2022-12-18T13:02:39;6.63;;;4.90;;
74227;SDS011;62587;52.352;5.006;2022-12-18T13:08:01;7.05;;;5.18;;
74227;SDS011;62587;52.352;5.006;2022-12-18T13:12:56;8.30;;;4.85;;
74227;SDS011;62587;52.352;5.006;2022-12-18T13:15:34;7.43;;;4.75;;
74227;SDS011;62587;52.352;5.006;2022-12-18T13:20:36;8.15;;;4.57;;
74227;SDS011;62587;52.352;5.006;2022-12-18T13:25:48;6.85;;;4.95;;
74227;SDS011;62587;52.352;5.006;2022-12-18T13:28:22;6.63;;;4.63;;
74227;SDS011;62587;52.352;5.006;2022-12-18T13:31:08;6.05;;;4.70;;
74227;SDS011;62587;52.352;5.006;2022-12-18T13:38:37;8.20;;;4.72;;
74227;SDS011;62587;52.352;5.006;2022-12-18T13:43:47;10.20;;;5.68;;
74227;SDS011;62587;52.352;5.006;2022-12-18T13:48:48;9.23;;;5.35;;
74227;SDS011;62587;52.352;5.006;2022-12-18T13:51:26;8.05;;;4.90;;
74227;SDS011;62587;52.352;5.006;2022-12-18T13:53:54;12.07;;;4.80;;
74227;SDS011;62587;52.352;5.006;2022-12-18T13:56:24;11.07;;;4.93;;
74227;SDS011;62587;52.352;5.006;2022-12-18T14:04:27;8.50;;;4.70;;
74227;SDS011;62587;52.352;5.006;2022-12-18T14:07:35;7.05;;;4.80;;
74227;SDS011;62587;52.352;5.006;2022-12-18T14:09:45;12.43;;;5.53;;
74227;SDS011;62587;52.352;5.006;2022-12-18T14:20:26;7.85;;;4.95;;
74227;SDS011;62587;52.352;5.006;2022-12-18T14:22:53;6.60;;;5.07;;
74227;SDS011;62587;52.352;5.006;2022-12-18T14:25:20;6.78;;;4.68;;
74227;SDS011;62587;52.352;5.006;2022-12-18T14:27:51;6.78;;;5.22;;
74227;SDS011;62587;52.352;5.006;2022-12-18T14:30:36;6.28;;;5.00;;
74227;SDS011;62587;52.352;5.006;2022-12-18T14:33:04;6.38;;;4.90;;
74227;SDS011;62587;52.352;5.006;2022-12-18T14:35:34;6.53;;;4.88;;
74227;SDS011;62587;52.352;5.006;2022-12-18T14:40:43;10.52;;;4.82;;
74227;SDS011;62587;52.352;5.006;2022-12-18T14:43:11;6.68;;;5.45;;
74227;SDS011;62587;52.352;5.006;2022-12-18T14:48:17;7.43;;;5.03;;
74227;SDS011;62587;52.352;5.006;2022-12-18T14:50:43;6.55;;;5.00;;
74227;SDS011;62587;52.352;5.006;2022-12-18T14:53:24;6.90;;;5.07;;
74227;SDS011;62587;52.352;5.006;2022-12-18T14:55:58;6.97;;;5.07;;
74227;SDS011;62587;52.352;5.006;2022-12-18T14:58:23;6.57;;;5.03;;
74227;SDS011;62587;52.352;5.006;2022-12-18T15:00:48;7.50;;;4.97;;
74227;SDS011;62587;52.352;5.006;2022-12-18T15:03:18;6.57;;;4.60;;
74227;SDS011;62587;52.352;5.006;2022-12-18T15:05:46;7.13;;;5.50;;
74227;SDS011;62587;52.352;5.006;2022-12-18T15:08:28;7.80;;;5.05;;
74227;SDS011;62587;52.352;5.006;2022-12-18T15:10:56;6.50;;;5.32;;
74227;SDS011;62587;52.352;5.006;2022-12-18T15:13:22;7.32;;;5.22;;
74227;SDS011;62587;52.352;5.006;2022-12-18T15:15:49;7.45;;;5.28;;
74227;SDS011;62587;52.352;5.006;2022-12-18T15:18:17;8.30;;;5.47;;
74227;SDS011;62587;52.352;5.006;2022-12-18T15:20:49;7.75;;;5.35;;
74227;SDS011;62587;52.352;5.006;2022-12-18T15:23:19;7.43;;;5.43;;
74227;SDS011;62587;52.352;5.006;2022-12-18T15:26:00;8.15;;;4.78;;
74227;SDS011;62587;52.352;5.006;2022-12-18T15:31:06;7.05;;;5.30;;
74227;SDS011;62587;52.352;5.006;2022-12-18T15:34:22;7.88;;;5.63;;
74227;SDS011;62587;52.352;5.006;2022-12-18T15:36:21;6.28;;;5.53;;
74227;SDS011;62587;52.352;5.006;2022-12-18T15:38:48;7.32;;;5.00;;
74227;SDS011;62587;52.352;5.006;2022-12-18T15:41:15;9.15;;;5.38;;
74227;SDS011;62587;52.352;5.006;2022-12-18T15:43:44;15.32;;;5.43;;
74227;SDS011;62587;52.352;5.006;2022-12-18T15:46:12;8.05;;;5.20;;
74227;SDS011;62587;52.352;5.006;2022-12-18T15:48:39;8.50;;;5.78;;
74227;SDS011;62587;52.352;5.006;2022-12-18T15:51:49;6.53;;;5.05;;
74227;SDS011;62587;52.352;5.006;2022-12-18T15:53:59;7.28;;;5.38;;
74227;SDS011;62587;52.352;5.006;2022-12-18T15:56:28;6.55;;;4.90;;
74227;SDS011;62587;52.352;5.006;2022-12-18T15:59:14;8.38;;;5.45;;
74227;SDS011;62587;52.352;5.006;2022-12-18T16:01:41;7.47;;;4.90;;
74227;SDS011;62587;52.352;5.006;2022-12-18T16:04:11;8.88;;;5.93;;
74227;SDS011;62587;52.352;5.006;2022-12-18T16:06:38;7.63;;;5.22;;
74227;SDS011;62587;52.352;5.006;2022-12-18T16:09:03;6.35;;;4.88;;
74227;SDS011;62587;52.352;5.006;2022-12-18T16:11:29;8.32;;;5.40;;
74227;SDS011;62587;52.352;5.006;2022-12-18T16:14:20;6.72;;;5.68;;
74227;SDS011;62587;52.352;5.006;2022-12-18T16:16:57;7.28;;;5.82;;
74227;SDS011;62587;52.352;5.006;2022-12-18T16:19:24;6.32;;;4.93;;
74227;SDS011;62587;52.352;5.006;2022-12-18T16:21:51;8.68;;;5.70;;
74227;SDS011;62587;52.352;5.006;2022-12-18T16:24:18;10.82;;;5.90;;
74227;SDS011;62587;52.352;5.006;2022-12-18T16:26:48;6.70;;;4.43;;
74227;SDS011;62587;52.352;5.006;2022-12-18T16:29:16;8.48;;;5.28;;
74227;SDS011;62587;52.352;5.006;2022-12-18T16:31:42;7.05;;;4.80;;
74227;SDS011;62587;52.352;5.006;2022-12-18T16:34:11;6.82;;;5.38;;
74227;SDS011;62587;52.352;5.006;2022-12-18T16:36:50;8.70;;;5.57;;
74227;SDS011;62587;52.352;5.006;2022-12-18T16:39:15;9.15;;;5.10;;
74227;SDS011;62587;52.352;5.006;2022-12-18T16:41:42;7.07;;;5.20;;
74227;SDS011;62587;52.352;5.006;2022-12-18T16:44:07;9.48;;;5.63;;
74227;SDS011;62587;52.352;5.006;2022-12-18T16:46:33;8.68;;;5.55;;
74227;SDS011;62587;52.352;5.006;2022-12-18T16:48:59;6.55;;;5.30;;
74227;SDS011;62587;52.352;5.006;2022-12-18T16:51:25;7.78;;;5.00;;
74227;SDS011;62587;52.352;5.006;2022-12-18T16:53:52;8.77;;;5.82;;
74227;SDS011;62587;52.352;5.006;2022-12-18T16:56:19;7.00;;;5.60;;